createdAt,value
2018-12-25T00:00:10.818Z,38.17
2018-12-25T00:02:38.480Z,38.27
2018-12-25T00:05:06.230Z,40.93
2018-12-25T00:07:34.094Z,40.33
2018-12-25T00:10:01.781Z,39.80
2018-12-25T00:12:29.571Z,42.13
2018-12-25T00:14:57.453Z,42.83
2018-12-25T00:17:25.128Z,44.50
2018-12-25T00:19:53.503Z,45.00
2018-12-25T00:22:21.251Z,45.60
2018-12-25T00:24:49.308Z,45.07
2018-12-25T00:27:17.087Z,43.17
2018-12-25T00:29:45.235Z,44.63
2018-12-25T00:32:14.014Z,44.70
2018-12-25T00:34:41.754Z,49.20
2018-12-25T00:37:09.470Z,48.27
2018-12-25T00:39:37.183Z,50.37
2018-12-25T00:42:04.878Z,52.23
2018-12-25T00:44:33.336Z,50.47
2018-12-25T00:47:00.988Z,50.73
2018-12-25T00:49:28.691Z,52.77
2018-12-25T00:51:56.676Z,53.53
2018-12-25T00:54:24.562Z,55.40
2018-12-25T00:56:52.260Z,53.60
2018-12-25T00:59:20.120Z,56.17
2018-12-25T01:01:47.791Z,54.50
2018-12-25T01:04:15.630Z,56.53
2018-12-25T01:06:43.524Z,58.70
2018-12-25T01:09:11.306Z,59.87
2018-12-25T01:11:39.018Z,58.70
2018-12-25T01:14:06.729Z,58.03
2018-12-25T01:16:34.913Z,58.87
2018-12-25T01:19:02.613Z,58.60
2018-12-25T01:21:31.101Z,56.50
2018-12-25T01:23:58.810Z,54.77
2018-12-25T01:26:26.595Z,58.33
2018-12-25T01:28:54.914Z,54.67
2018-12-25T01:31:22.625Z,60.10
2018-12-25T01:33:50.750Z,59.17
2018-12-25T01:36:18.406Z,56.33
2018-12-25T01:38:46.587Z,53.80
2018-12-25T01:41:14.255Z,59.93
2018-12-25T01:43:42.380Z,58.43
2018-12-25T01:46:10.449Z,61.33
2018-12-25T01:48:38.243Z,60.83
2018-12-25T01:51:05.923Z,61.20
2018-12-25T01:53:33.627Z,60.73
2018-12-25T01:56:01.487Z,57.80
2018-12-25T01:58:29.437Z,58.67
2018-12-25T02:00:57.114Z,80.07
2018-12-25T02:03:25.015Z,68.83
2018-12-25T02:05:52.772Z,69.50
2018-12-25T02:08:20.793Z,66.10
2018-12-25T02:10:48.612Z,66.57
2018-12-25T02:13:16.343Z,71.00
2018-12-25T02:15:45.116Z,69.00
2018-12-25T02:18:12.809Z,71.67
2018-12-25T02:20:40.945Z,73.13
2018-12-25T02:23:09.120Z,82.07
2018-12-25T02:25:37.003Z,81.23
2018-12-25T02:28:04.691Z,84.03
2018-12-25T02:30:32.467Z,83.33
2018-12-25T02:33:00.527Z,83.73
2018-12-25T02:35:28.516Z,83.67
2018-12-25T02:37:56.449Z,84.10
2018-12-25T02:40:24.238Z,81.27
2018-12-25T02:42:52.000Z,82.87
2018-12-25T02:45:19.698Z,80.30
2018-12-25T02:47:47.331Z,80.10
2018-12-25T02:50:15.463Z,81.10
2018-12-25T02:52:43.147Z,78.63
2018-12-25T02:55:10.903Z,76.67
2018-12-25T02:57:38.658Z,77.20
2018-12-25T03:00:06.837Z,84.77
2018-12-25T03:02:34.906Z,88.30
2018-12-25T03:05:03.253Z,93.60
2018-12-25T03:07:31.347Z,105.20
2018-12-25T03:09:59.726Z,91.20
2018-12-25T03:12:27.734Z,94.67
2018-12-25T03:14:55.591Z,89.47
2018-12-25T03:17:23.252Z,93.23
2018-12-25T03:19:59.588Z,82.93
2018-12-25T03:22:20.519Z,86.23
2018-12-25T03:24:48.538Z,88.17
2018-12-25T03:27:16.159Z,91.37
2018-12-25T03:29:43.810Z,92.60
2018-12-25T03:32:11.774Z,98.60
2018-12-25T03:34:39.474Z,93.33
2018-12-25T03:37:07.531Z,89.13
2018-12-25T03:39:35.233Z,90.43
2018-12-25T03:42:03.075Z,88.57
2018-12-25T03:44:31.195Z,93.23
2018-12-25T03:46:59.263Z,88.23
2018-12-25T03:49:26.975Z,87.90
2018-12-25T03:51:54.656Z,89.93
2018-12-25T03:54:23.715Z,85.50
2018-12-25T03:56:51.835Z,87.20
2018-12-25T03:59:19.452Z,84.70
2018-12-25T04:01:47.473Z,85.60
2018-12-25T04:04:15.198Z,85.83
2018-12-25T04:06:42.951Z,90.60
2018-12-25T04:09:10.694Z,89.20
2018-12-25T04:11:38.984Z,95.27
2018-12-25T04:14:06.674Z,97.73
2018-12-25T04:16:34.615Z,98.60
2018-12-25T04:19:02.345Z,98.97
2018-12-25T04:21:30.159Z,104.13
2018-12-25T04:23:57.834Z,100.73
2018-12-25T04:26:25.668Z,98.77
2018-12-25T04:28:53.695Z,100.47
2018-12-25T04:31:21.615Z,98.93
2018-12-25T04:33:49.318Z,102.60
2018-12-25T04:36:17.046Z,111.23
2018-12-25T04:38:45.852Z,109.47
2018-12-25T04:41:14.126Z,106.33
2018-12-25T04:43:42.196Z,103.97
2018-12-25T04:46:10.145Z,106.97
2018-12-25T04:48:37.927Z,108.00
2018-12-25T04:51:05.630Z,108.93
2018-12-25T04:53:33.502Z,107.10
2018-12-25T04:56:01.580Z,104.40
2018-12-25T04:58:29.688Z,102.30
2018-12-25T05:00:57.270Z,100.53
2018-12-25T05:03:25.299Z,102.87
2018-12-25T05:05:53.179Z,102.83
2018-12-25T05:08:20.941Z,112.30
2018-12-25T05:10:48.718Z,115.00
2018-12-25T05:13:16.590Z,127.77
2018-12-25T05:15:44.290Z,122.67
2018-12-25T05:18:12.075Z,118.40
2018-12-25T05:20:39.893Z,119.17
2018-12-25T05:23:07.593Z,114.90
2018-12-25T05:25:35.530Z,116.63
2018-12-25T05:28:03.197Z,111.73
2018-12-25T05:30:31.093Z,106.97
2018-12-25T05:32:58.779Z,110.87
2018-12-25T05:35:26.867Z,105.40
2018-12-25T05:37:54.580Z,101.23
2018-12-25T05:40:22.250Z,97.47
2018-12-25T05:42:50.233Z,97.23
2018-12-25T05:45:18.409Z,94.50
2018-12-25T05:47:46.374Z,93.23
2018-12-25T05:50:14.122Z,89.23
2018-12-25T05:52:41.813Z,87.10
2018-12-25T05:55:09.851Z,89.13
2018-12-25T05:57:37.744Z,86.67
2018-12-25T06:00:06.051Z,94.47
2018-12-25T06:02:34.102Z,97.10
2018-12-25T06:05:01.867Z,102.03
2018-12-25T06:07:29.844Z,103.57
2018-12-25T06:09:57.549Z,106.47
2018-12-25T06:12:25.334Z,105.37
2018-12-25T06:14:53.028Z,100.93
2018-12-25T06:17:21.298Z,97.60
2018-12-25T06:19:49.049Z,95.03
2018-12-25T06:22:16.739Z,259.53
2018-12-25T06:24:44.642Z,90.27
2018-12-25T06:27:12.372Z,86.37
2018-12-25T06:29:40.410Z,88.23
2018-12-25T06:32:08.175Z,124.00
2018-12-25T06:34:35.862Z,101.13
2018-12-25T06:37:03.578Z,96.07
2018-12-25T06:39:31.420Z,89.53
2018-12-25T06:41:59.337Z,87.77
2018-12-25T06:44:28.183Z,84.60
2018-12-25T06:46:56.002Z,82.87
2018-12-25T06:49:23.736Z,86.70
2018-12-25T06:51:51.815Z,93.00
2018-12-25T06:54:19.895Z,91.37
2018-12-25T06:56:47.607Z,95.20
2018-12-25T06:59:16.031Z,97.33
2018-12-25T07:01:43.738Z,94.20
2018-12-25T07:04:11.842Z,96.60
2018-12-25T07:06:39.708Z,103.40
2018-12-25T07:09:07.369Z,107.33
2018-12-25T07:11:35.084Z,113.43
2018-12-25T07:14:02.895Z,130.20
2018-12-25T07:16:30.802Z,108.13
2018-12-25T07:18:58.843Z,94.77
2018-12-25T07:21:26.972Z,89.50
2018-12-25T07:23:55.038Z,87.37
2018-12-25T07:26:23.136Z,93.03
2018-12-25T07:28:50.819Z,96.47
2018-12-25T07:31:18.618Z,98.53
2018-12-25T07:33:46.310Z,102.23
2018-12-25T07:36:14.036Z,106.70
2018-12-25T07:38:41.721Z,106.10
2018-12-25T07:41:09.979Z,102.17
2018-12-25T07:43:38.052Z,102.40
2018-12-25T07:46:06.096Z,99.90
2018-12-25T07:48:33.949Z,96.53
2018-12-25T07:51:02.017Z,100.73
2018-12-25T07:53:30.517Z,101.00
2018-12-25T07:55:58.252Z,108.60
2018-12-25T07:58:26.541Z,112.57
2018-12-25T08:00:54.215Z,113.73
2018-12-25T08:03:22.209Z,108.77
2018-12-25T08:05:50.015Z,113.43
2018-12-25T08:08:18.196Z,112.73
2018-12-25T08:10:45.854Z,115.63
2018-12-25T08:13:14.052Z,107.47
2018-12-25T08:15:41.777Z,107.67
2018-12-25T08:18:09.447Z,109.80
2018-12-25T08:20:37.838Z,112.53
2018-12-25T08:23:05.494Z,109.37
2018-12-25T08:25:33.232Z,111.63
2018-12-25T08:28:01.315Z,109.93
2018-12-25T08:30:28.960Z,107.63
2018-12-25T08:32:56.608Z,106.47
2018-12-25T08:35:24.736Z,110.10
2018-12-25T08:37:52.429Z,110.53
2018-12-25T08:40:20.170Z,103.37
2018-12-25T08:42:47.864Z,98.30
2018-12-25T08:45:15.623Z,95.70
2018-12-25T08:47:43.651Z,93.73
2018-12-25T08:50:12.432Z,97.00
2018-12-25T08:52:40.123Z,100.37
2018-12-25T08:55:07.934Z,102.80
2018-12-25T08:57:35.630Z,106.00
2018-12-25T09:00:04.809Z,108.27
2018-12-25T09:02:32.900Z,106.97
2018-12-25T09:05:00.705Z,106.60
2018-12-25T09:07:28.375Z,109.67
2018-12-25T09:09:56.506Z,108.23
2018-12-25T09:12:24.212Z,109.60
2018-12-25T09:14:51.908Z,114.47
2018-12-25T09:17:19.778Z,111.57
2018-12-25T09:19:47.445Z,112.40
2018-12-25T09:22:15.380Z,109.63
2018-12-25T09:24:43.214Z,117.63
2018-12-25T09:27:11.321Z,119.97
2018-12-25T09:29:39.105Z,116.00
2018-12-25T09:32:07.370Z,114.63
2018-12-25T09:34:35.414Z,116.40
2018-12-25T09:37:03.762Z,116.60
2018-12-25T09:39:31.991Z,111.53
2018-12-25T09:41:59.689Z,113.73
2018-12-25T09:44:27.405Z,114.70
2018-12-25T09:46:55.368Z,109.23
2018-12-25T09:49:23.095Z,112.87
2018-12-25T09:51:54.548Z,109.80
2018-12-25T09:54:20.937Z,111.70
2018-12-25T09:56:49.711Z,109.67
2018-12-25T09:59:17.542Z,105.57
2018-12-25T10:01:45.219Z,101.00
2018-12-25T10:04:13.343Z,102.73
2018-12-25T10:06:41.007Z,100.27
2018-12-25T10:09:08.759Z,95.70
2018-12-25T10:11:44.150Z,89.87
2018-12-25T10:14:05.946Z,86.03
2018-12-25T10:16:34.275Z,82.63
2018-12-25T10:19:02.981Z,77.63
2018-12-25T10:21:31.076Z,73.77
2018-12-25T10:23:58.838Z,66.60
2018-12-25T10:26:26.990Z,63.53
2018-12-25T10:28:55.086Z,58.10
2018-12-25T10:31:22.811Z,50.97
2018-12-25T10:33:50.708Z,45.77
2018-12-25T10:36:18.461Z,39.97
2018-12-25T10:38:46.444Z,34.67
2018-12-25T10:41:14.491Z,33.60
2018-12-25T10:43:42.316Z,25.83
2018-12-25T10:46:10.106Z,27.13
2018-12-25T10:48:38.263Z,25.27
2018-12-25T10:51:05.910Z,23.43
2018-12-25T10:53:33.851Z,19.93
2018-12-25T10:56:01.814Z,18.33
2018-12-25T10:58:29.596Z,17.87
2018-12-25T11:01:01.477Z,17.27
2018-12-25T11:03:29.250Z,15.83
2018-12-25T11:05:57.120Z,15.63
2018-12-25T11:08:24.891Z,13.40
2018-12-25T11:10:52.669Z,13.10
2018-12-25T11:13:20.391Z,14.17
2018-12-25T11:15:48.366Z,13.37
2018-12-25T11:18:16.148Z,15.37
2018-12-25T11:20:44.285Z,12.80
2018-12-25T11:23:12.391Z,10.13
2018-12-25T11:25:40.106Z,11.90
2018-12-25T11:28:07.767Z,12.17
2018-12-25T11:30:35.785Z,11.70
2018-12-25T11:33:03.863Z,10.57
2018-12-25T11:35:32.288Z,10.10
2018-12-25T11:38:00.211Z,9.60
2018-12-25T11:40:28.347Z,9.53
2018-12-25T11:42:56.159Z,9.93
2018-12-25T11:45:24.082Z,10.43
2018-12-25T11:47:51.949Z,9.43
2018-12-25T11:50:19.814Z,9.20
2018-12-25T11:52:47.885Z,8.73
2018-12-25T11:55:15.901Z,10.00
2018-12-25T11:57:44.101Z,8.60
2018-12-25T12:00:12.383Z,8.40
2018-12-25T12:02:40.116Z,8.87
2018-12-25T12:05:07.836Z,8.40
2018-12-25T12:07:36.322Z,7.77
2018-12-25T12:10:04.509Z,8.90
2018-12-25T12:12:32.183Z,8.90
2018-12-25T12:15:00.030Z,8.57
2018-12-25T12:17:27.763Z,9.07
2018-12-25T12:19:55.495Z,8.20
2018-12-25T12:22:24.143Z,8.23
2018-12-25T12:24:52.610Z,7.63
2018-12-25T12:27:20.926Z,8.60
2018-12-25T12:29:49.033Z,7.90
2018-12-25T12:32:17.039Z,8.23
2018-12-25T12:34:45.014Z,8.17
2018-12-25T12:37:12.673Z,7.67
2018-12-25T12:39:40.434Z,8.03
2018-12-25T12:42:08.190Z,8.30
2018-12-25T12:44:36.127Z,8.47
2018-12-25T12:47:04.195Z,8.17
2018-12-25T12:49:31.893Z,9.03
2018-12-25T12:52:00.542Z,8.47
2018-12-25T12:54:28.214Z,8.40
2018-12-25T12:56:55.986Z,8.33
2018-12-25T12:59:23.733Z,9.37
2018-12-25T13:01:51.790Z,8.80
2018-12-25T13:04:19.798Z,8.30
2018-12-25T13:06:47.442Z,8.37
2018-12-25T13:09:15.173Z,9.13
2018-12-25T13:11:43.061Z,8.97
2018-12-25T13:14:10.779Z,8.53
2018-12-25T13:16:39.350Z,8.77
2018-12-25T13:19:07.181Z,8.70
2018-12-25T13:21:35.015Z,8.80
2018-12-25T13:24:03.993Z,8.73
2018-12-25T13:26:31.887Z,9.73
2018-12-25T13:29:00.254Z,9.77
2018-12-25T13:31:27.941Z,9.07
2018-12-25T13:33:56.015Z,10.07
2018-12-25T13:36:23.659Z,9.30
2018-12-25T13:38:51.804Z,10.07
2018-12-25T13:41:19.491Z,10.07
2018-12-25T13:43:47.314Z,10.10
2018-12-25T13:46:15.466Z,10.53
2018-12-25T13:48:43.257Z,10.07
2018-12-25T13:51:10.969Z,10.47
2018-12-25T13:53:39.046Z,10.50
2018-12-25T13:56:06.809Z,10.63
2018-12-25T13:58:34.642Z,10.10
2018-12-25T14:01:02.620Z,10.43
2018-12-25T14:03:30.475Z,10.07
2018-12-25T14:05:58.179Z,12.00
2018-12-25T14:08:25.978Z,9.97
2018-12-25T14:10:53.658Z,9.30
2018-12-25T14:13:21.643Z,10.63
2018-12-25T14:15:49.547Z,10.53
2018-12-25T14:18:17.210Z,10.87
2018-12-25T14:20:44.954Z,10.57
2018-12-25T14:23:13.071Z,11.60
2018-12-25T14:25:40.983Z,11.13
2018-12-25T14:28:08.811Z,11.13
2018-12-25T14:30:36.922Z,10.83
2018-12-25T14:33:04.740Z,10.53
2018-12-25T14:35:32.434Z,10.63
2018-12-25T14:38:00.305Z,11.87
2018-12-25T14:40:28.541Z,11.70
2018-12-25T14:42:56.252Z,10.97
2018-12-25T14:45:23.931Z,12.30
2018-12-25T14:47:51.673Z,11.27
2018-12-25T14:50:19.452Z,13.57
2018-12-25T14:52:47.547Z,13.23
2018-12-25T14:55:15.495Z,14.40
2018-12-25T14:57:43.204Z,15.73
2018-12-25T15:00:10.948Z,15.20
2018-12-25T15:02:38.736Z,14.27
2018-12-25T15:05:06.554Z,13.97
2018-12-25T15:07:34.578Z,15.47
2018-12-25T15:10:02.797Z,16.37
2018-12-25T15:12:30.809Z,15.87
2018-12-25T15:14:58.633Z,17.57
2018-12-25T15:17:26.608Z,17.57
2018-12-25T15:19:55.134Z,17.70
2018-12-25T15:22:22.790Z,20.93
2018-12-25T15:24:51.075Z,18.43
2018-12-25T15:27:18.996Z,18.53
2018-12-25T15:29:46.682Z,18.60
2018-12-25T15:32:14.980Z,22.23
2018-12-25T15:34:43.189Z,19.33
2018-12-25T15:37:11.119Z,17.50
2018-12-25T15:39:39.361Z,17.67
2018-12-25T15:42:07.537Z,18.00
2018-12-25T15:44:35.200Z,16.97
2018-12-25T15:47:03.172Z,18.13
2018-12-25T15:49:32.130Z,17.40
2018-12-25T15:51:59.846Z,15.80
2018-12-25T15:54:27.884Z,16.57
2018-12-25T15:56:56.754Z,17.93
2018-12-25T15:59:24.561Z,19.00
2018-12-25T16:01:52.317Z,19.47
2018-12-25T16:04:20.255Z,23.30
2018-12-25T16:06:48.078Z,24.97
2018-12-25T16:09:16.146Z,26.63
2018-12-25T16:11:44.181Z,26.43
2018-12-25T16:14:11.931Z,24.50
2018-12-25T16:16:39.872Z,26.67
2018-12-25T16:19:07.590Z,28.57
2018-12-25T16:21:35.412Z,28.47
2018-12-25T16:24:03.224Z,27.37
2018-12-25T16:26:31.435Z,30.27
2018-12-25T16:28:59.074Z,32.63
2018-12-25T16:31:27.222Z,36.43
2018-12-25T16:33:55.917Z,43.60
2018-12-25T16:36:23.677Z,41.67
2018-12-25T16:38:51.481Z,42.27
2018-12-25T16:41:19.628Z,44.23
2018-12-25T16:43:47.634Z,40.27
2018-12-25T16:46:15.345Z,49.67
2018-12-25T16:48:43.029Z,49.10
2018-12-25T16:51:12.137Z,53.70
2018-12-25T16:53:41.878Z,48.87
2018-12-25T16:56:09.784Z,46.70
2018-12-25T16:58:37.457Z,43.50
2018-12-25T17:01:05.489Z,45.63
2018-12-25T17:03:33.191Z,41.23
2018-12-25T17:06:01.239Z,42.87
2018-12-25T17:08:28.981Z,44.77
2018-12-25T17:10:56.639Z,42.83
2018-12-25T17:13:24.646Z,43.07
2018-12-25T17:15:52.324Z,43.67
2018-12-25T17:18:20.481Z,43.50
2018-12-25T17:20:48.551Z,45.83
2018-12-25T17:23:16.654Z,44.97
2018-12-25T17:25:44.712Z,50.23
2018-12-25T17:28:12.746Z,52.67
2018-12-25T17:30:40.397Z,51.67
2018-12-25T17:33:08.149Z,54.63
2018-12-25T17:35:36.093Z,57.67
2018-12-25T17:38:03.943Z,59.53
2018-12-25T17:40:31.616Z,59.20
2018-12-25T17:42:59.540Z,62.07
2018-12-25T17:45:27.256Z,61.33
2018-12-25T17:47:54.954Z,63.17
2018-12-25T17:50:23.067Z,68.77
2018-12-25T17:52:50.743Z,69.83
2018-12-25T17:55:21.018Z,69.60
2018-12-25T17:57:48.656Z,71.00
2018-12-25T18:00:16.339Z,69.83
2018-12-25T18:02:44.256Z,71.00
2018-12-25T18:05:12.275Z,69.37
2018-12-25T18:07:40.051Z,67.23
2018-12-25T18:10:08.009Z,62.00
2018-12-25T18:12:35.887Z,68.07
2018-12-25T18:15:04.410Z,64.87
2018-12-25T18:17:32.188Z,59.90
2018-12-25T18:20:01.306Z,66.63
2018-12-25T18:22:28.995Z,67.33
2018-12-25T18:24:56.712Z,74.37
2018-12-25T18:27:24.404Z,77.10
2018-12-25T18:29:52.134Z,77.50
2018-12-25T18:32:20.459Z,82.23
2018-12-25T18:34:48.490Z,76.90
2018-12-25T18:37:16.408Z,77.30
2018-12-25T18:39:52.387Z,75.13
2018-12-25T18:42:23.375Z,73.83
2018-12-25T18:44:50.330Z,74.30
2018-12-25T18:47:18.033Z,68.80
2018-12-25T18:49:45.785Z,71.87
2018-12-25T18:52:13.537Z,67.77
2018-12-25T18:54:41.214Z,73.67
2018-12-25T18:57:08.923Z,72.37
2018-12-25T18:59:36.912Z,76.97
2018-12-25T19:02:04.630Z,80.67
2018-12-25T19:04:32.707Z,80.97
2018-12-25T19:07:00.425Z,79.03
2018-12-25T19:09:28.151Z,80.23
2018-12-25T19:11:56.301Z,78.50
2018-12-25T19:14:24.695Z,81.73
2018-12-25T19:16:52.472Z,82.97
2018-12-25T19:19:20.525Z,82.03
2018-12-25T19:21:48.207Z,83.77
2018-12-25T19:24:15.942Z,89.37
2018-12-25T19:26:43.646Z,88.57
2018-12-25T19:29:11.510Z,85.53
2018-12-25T19:31:39.212Z,81.87
2018-12-25T19:34:06.904Z,81.23
2018-12-25T19:36:34.941Z,82.57
2018-12-25T19:39:03.593Z,80.80
2018-12-25T19:41:31.830Z,84.40
2018-12-25T19:43:59.535Z,83.97
2018-12-25T19:46:27.574Z,80.30
2018-12-25T19:48:55.573Z,85.37
2018-12-25T19:51:23.361Z,80.50
2018-12-25T19:53:51.166Z,80.20
2018-12-25T19:56:19.216Z,76.90
2018-12-25T19:58:47.938Z,77.10
2018-12-25T20:01:15.707Z,75.37
2018-12-25T20:03:45.635Z,80.63
2018-12-25T20:06:40.019Z,81.60
2018-12-25T20:09:25.924Z,80.30
2018-12-25T20:12:10.049Z,82.53
2018-12-25T20:14:59.979Z,85.23
2018-12-25T20:17:40.466Z,89.00
2018-12-25T20:20:40.073Z,93.90
2018-12-25T20:23:36.179Z,92.50
2018-12-25T20:26:19.565Z,92.53
2018-12-25T20:29:19.009Z,93.63
2018-12-25T20:32:24.480Z,98.30
2018-12-25T20:35:04.548Z,101.97
2018-12-25T20:37:51.183Z,105.97
2018-12-25T20:40:43.965Z,105.87
2018-12-25T20:43:37.306Z,112.13
2018-12-25T20:46:23.979Z,106.97
2018-12-25T20:49:07.126Z,107.83
2018-12-25T20:52:12.927Z,102.63
2018-12-25T20:55:01.122Z,105.90
2018-12-25T20:57:45.112Z,115.97
2018-12-25T21:00:34.097Z,136.83
2018-12-25T21:03:21.292Z,140.23
2018-12-25T21:06:11.460Z,142.97
2018-12-25T21:08:48.014Z,141.93
2018-12-25T21:11:41.391Z,155.67
2018-12-25T21:14:28.576Z,158.87
2018-12-25T21:17:15.776Z,159.77
2018-12-25T21:20:03.056Z,157.47
2018-12-25T21:22:49.343Z,154.43
2018-12-25T21:25:35.398Z,143.77
2018-12-25T21:28:02.633Z,127.80
2018-12-25T21:30:30.787Z,125.30
2018-12-25T21:32:58.480Z,124.27
2018-12-25T21:35:26.187Z,124.87
2018-12-25T21:37:55.715Z,123.43
2018-12-25T21:40:23.559Z,122.13
2018-12-25T21:42:52.495Z,126.50
2018-12-25T21:45:20.232Z,131.40
2018-12-25T21:47:48.630Z,124.70
2018-12-25T21:50:16.573Z,118.73
2018-12-25T21:52:44.611Z,113.23
2018-12-25T21:55:18.477Z,112.43
2018-12-25T21:57:42.398Z,109.27
2018-12-25T22:00:11.967Z,110.57
2018-12-25T22:02:40.031Z,116.50
2018-12-25T22:05:07.913Z,115.10
2018-12-25T22:07:35.812Z,112.83
2018-12-25T22:10:04.038Z,116.40
2018-12-25T22:12:31.789Z,108.73
2018-12-25T22:14:59.968Z,102.70
2018-12-25T22:17:28.035Z,107.20
2018-12-25T22:19:56.136Z,109.30
2018-12-25T22:22:24.151Z,117.30
2018-12-25T22:24:52.061Z,106.83
2018-12-25T22:27:20.221Z,111.40
2018-12-25T22:29:48.451Z,113.83
2018-12-25T22:32:16.481Z,118.40
2018-12-25T22:34:44.162Z,115.93
2018-12-25T22:37:11.937Z,117.03
2018-12-25T22:39:39.617Z,111.70
2018-12-25T22:42:09.401Z,103.03
2018-12-25T22:44:37.480Z,103.33
2018-12-25T22:47:05.664Z,99.37
2018-12-25T22:49:33.739Z,106.43
2018-12-25T22:52:02.075Z,105.87
2018-12-25T22:54:29.857Z,106.87
2018-12-25T22:56:57.736Z,106.70
2018-12-25T22:59:25.459Z,105.53
2018-12-25T23:01:53.228Z,102.80
2018-12-25T23:04:21.249Z,95.67
2018-12-25T23:06:50.307Z,99.47
2018-12-25T23:09:18.538Z,100.57
2018-12-25T23:11:46.408Z,102.63
2018-12-25T23:14:14.201Z,107.87
2018-12-25T23:16:41.953Z,111.07
2018-12-25T23:19:09.620Z,102.93
2018-12-25T23:21:37.342Z,104.10
2018-12-25T23:24:05.192Z,104.53
2018-12-25T23:26:32.920Z,108.73
2018-12-25T23:29:01.179Z,103.50
2018-12-25T23:31:29.594Z,106.03
2018-12-25T23:33:59.338Z,113.00
2018-12-25T23:36:27.525Z,116.13
2018-12-25T23:38:55.151Z,114.43
2018-12-25T23:41:23.611Z,111.30
2018-12-25T23:43:53.446Z,104.37
2018-12-25T23:46:21.184Z,102.60
2018-12-25T23:48:48.880Z,106.33
2018-12-25T23:51:17.789Z,107.83
2018-12-25T23:53:45.719Z,106.30
2018-12-25T23:56:13.801Z,106.27
2018-12-25T23:58:41.860Z,105.80
